Time;durP1;ratioP1;P1;durP2;ratioP2;P2;SDS_P1;SDS_P2;PMS_P1;PMS_P2;Temp;Humidity;BMP_temperature;BMP_pressure;BME280_temperature;BME280_humidity;BME280_pressure;Samples;Min_cycle;Max_cycle;Signal;HPM_P1;HPM_P2
2023/06/05 00:00:08;;;;;;;6.93;2.80;;;;;;;;;;5069206;28;20926;-63
2023/06/05 00:02:34;;;;;;;5.75;2.60;;;;;;;;;;5066887;28;20031;-63
2023/06/05 00:05:01;;;;;;;8.63;2.97;;;;;;;;;;5068864;28;20062;-63
2023/06/05 00:07:26;;;;;;;4.50;2.80;;;;;;;;;;5065279;28;20081;-63
2023/06/05 00:09:51;;;;;;;9.10;2.92;;;;;;;;;;5059406;28;20796;-63
2023/06/05 00:12:17;;;;;;;10.60;3.17;;;;;;;;;;5087553;28;20063;-62
2023/06/05 00:14:43;;;;;;;6.73;3.00;;;;;;;;;;5093948;28;20107;-62
2023/06/05 00:17:09;;;;;;;7.63;3.10;;;;;;;;;;5095696;28;20262;-62
2023/06/05 00:19:34;;;;;;;6.95;2.78;;;;;;;;;;5105857;28;20016;-62
2023/06/05 00:21:59;;;;;;;7.43;3.15;;;;;;;;;;5096650;28;20028;-62
2023/06/05 00:24:25;;;;;;;6.15;2.95;;;;;;;;;;5111723;28;20034;-62
2023/06/05 00:26:50;;;;;;;5.47;3.15;;;;;;;;;;5101927;28;20110;-62
2023/06/05 00:29:15;;;;;;;5.30;3.30;;;;;;;;;;5097486;28;20470;-62
2023/06/05 00:31:42;;;;;;;5.95;2.78;;;;;;;;;;5095890;28;20660;-62
2023/06/05 00:34:07;;;;;;;6.30;3.05;;;;;;;;;;5096214;28;20016;-61
2023/06/05 00:36:32;;;;;;;5.13;2.85;;;;;;;;;;5094532;28;20043;-63
2023/06/05 00:38:57;;;;;;;5.13;2.85;;;;;;;;;;5098328;28;20454;-62
2023/06/05 00:41:23;;;;;;;6.50;3.33;;;;;;;;;;5111112;28;20063;-61
2023/06/05 00:43:48;;;;;;;8.07;3.05;;;;;;;;;;5108923;28;20039;-62
2023/06/05 00:46:14;;;;;;;6.43;3.00;;;;;;;;;;5103764;28;20023;-62
2023/06/05 00:48:40;;;;;;;6.15;3.28;;;;;;;;;;5093148;28;20274;-62
2023/06/05 00:51:06;;;;;;;7.22;3.33;;;;;;;;;;5091874;28;20032;-63
2023/06/05 00:53:34;;;;;;;5.65;3.00;;;;;;;;;;5093502;28;20104;-62
2023/06/05 00:56:01;;;;;;;7.47;3.13;;;;;;;;;;5101066;28;20062;-62
2023/06/05 00:58:28;;;;;;;7.30;3.58;;;;;;;;;;5095271;28;20020;-62
2023/06/05 01:00:53;;;;;;;9.45;3.47;;;;;;;;;;5072591;28;20539;-62
2023/06/05 01:03:20;;;;;;;10.57;3.50;;;;;;;;;;5091094;28;20036;-63
2023/06/05 01:05:47;;;;;;;7.43;3.20;;;;;;;;;;5073022;28;20382;-62
2023/06/05 01:08:14;;;;;;;6.30;3.55;;;;;;;;;;5086267;28;20453;-62
2023/06/05 01:10:39;;;;;;;5.32;3.03;;;;;;;;;;5091216;28;20126;-63
2023/06/05 01:13:09;;;;;;;8.38;3.47;;;;;;;;;;5090780;28;20056;-63
2023/06/05 01:15:36;;;;;;;7.70;3.88;;;;;;;;;;5094374;28;20028;-63
2023/06/05 01:18:01;;;;;;;5.85;3.42;;;;;;;;;;5100374;28;20463;-62
2023/06/05 01:20:33;;;;;;;6.28;3.00;;;;;;;;;;5093789;28;20181;-63
2023/06/05 01:22:58;;;;;;;8.00;3.65;;;;;;;;;;5064024;28;20024;-63
2023/06/05 01:25:25;;;;;;;6.35;3.90;;;;;;;;;;5073043;28;20018;-63
2023/06/05 01:27:59;;;;;;;6.15;3.72;;;;;;;;;;5069954;28;20043;-63
2023/06/05 01:30:39;;;;;;;6.10;3.17;;;;;;;;;;5098721;28;20441;-63
2023/06/05 01:33:17;;;;;;;5.68;3.70;;;;;;;;;;5098602;28;20400;-63
2023/06/05 01:35:44;;;;;;;6.20;3.30;;;;;;;;;;5098669;28;20031;-63
2023/06/05 01:38:11;;;;;;;7.32;3.38;;;;;;;;;;5098754;28;20058;-63
2023/06/05 01:40:36;;;;;;;6.72;3.53;;;;;;;;;;5102261;28;20032;-63
2023/06/05 01:43:03;;;;;;;7.35;3.80;;;;;;;;;;5087931;28;20023;-63
2023/06/05 01:45:29;;;;;;;5.00;3.63;;;;;;;;;;5068192;28;20349;-63
2023/06/05 01:47:56;;;;;;;6.47;2.90;;;;;;;;;;5072174;28;20042;-63
2023/06/05 01:50:22;;;;;;;5.55;3.33;;;;;;;;;;5090200;28;20478;-63
2023/06/05 01:52:47;;;;;;;6.43;3.60;;;;;;;;;;5109589;28;20028;-62
2023/06/05 01:55:18;;;;;;;7.97;3.60;;;;;;;;;;5114450;28;20049;-63
2023/06/05 01:57:43;;;;;;;7.32;3.45;;;;;;;;;;5106980;28;20034;-63
2023/06/05 02:00:13;;;;;;;8.23;3.75;;;;;;;;;;5097120;28;20032;-63
2023/06/05 02:02:48;;;;;;;9.02;3.88;;;;;;;;;;5097237;28;20115;-63
2023/06/05 02:05:14;;;;;;;5.72;3.50;;;;;;;;;;5111563;28;20024;-62
2023/06/05 02:07:40;;;;;;;8.02;3.40;;;;;;;;;;5116872;28;20024;-62
2023/06/05 02:10:06;;;;;;;7.95;4.38;;;;;;;;;;5115068;28;20051;-62
2023/06/05 02:12:32;;;;;;;5.75;3.50;;;;;;;;;;5115517;28;20114;-63
2023/06/05 02:14:57;;;;;;;6.22;4.05;;;;;;;;;;5115365;28;20031;-62
2023/06/05 02:17:24;;;;;;;8.25;4.15;;;;;;;;;;5115149;28;20480;-62
2023/06/05 02:19:50;;;;;;;7.13;4.10;;;;;;;;;;5113164;28;20401;-63
2023/06/05 02:22:15;;;;;;;4.97;3.45;;;;;;;;;;5116703;28;20044;-62
2023/06/05 02:24:41;;;;;;;8.55;4.18;;;;;;;;;;5117126;28;20030;-62
2023/06/05 02:27:08;;;;;;;7.20;3.75;;;;;;;;;;5113770;28;20116;-63
2023/06/05 02:29:33;;;;;;;10.68;4.25;;;;;;;;;;5102423;28;20059;-63
2023/06/05 02:31:58;;;;;;;5.32;3.78;;;;;;;;;;5106734;28;20097;-62
2023/06/05 02:34:24;;;;;;;6.65;4.50;;;;;;;;;;5113465;28;20027;-62
2023/06/05 02:36:50;;;;;;;9.93;3.92;;;;;;;;;;5113005;28;20031;-62
2023/06/05 02:39:16;;;;;;;6.78;4.47;;;;;;;;;;5111402;28;20038;-62
2023/06/05 02:41:42;;;;;;;8.60;5.10;;;;;;;;;;5102239;28;20111;-63
2023/06/05 02:44:07;;;;;;;7.15;3.80;;;;;;;;;;5092721;28;20024;-62
2023/06/05 02:46:33;;;;;;;7.00;4.22;;;;;;;;;;5093580;28;20145;-62
2023/06/05 02:48:58;;;;;;;7.55;4.28;;;;;;;;;;5106383;28;20032;-62
2023/06/05 02:51:23;;;;;;;7.78;4.00;;;;;;;;;;5098885;28;20500;-62
2023/06/05 02:53:48;;;;;;;9.95;4.50;;;;;;;;;;5106157;28;20034;-62
2023/06/05 02:56:14;;;;;;;14.55;5.28;;;;;;;;;;5094110;28;20024;-62
2023/06/05 02:58:43;;;;;;;6.13;3.72;;;;;;;;;;5094510;28;20479;-63
2023/06/05 03:01:10;;;;;;;7.28;4.28;;;;;;;;;;5099206;28;20036;-62
2023/06/05 03:03:35;;;;;;;5.95;4.30;;;;;;;;;;5096261;28;20470;-62
2023/06/05 03:06:04;;;;;;;7.07;4.20;;;;;;;;;;5099614;28;20020;-62
2023/06/05 03:08:35;;;;;;;11.88;5.05;;;;;;;;;;5096802;28;20035;-62
2023/06/05 03:11:01;;;;;;;12.73;4.78;;;;;;;;;;5098745;28;20475;-63
2023/06/05 03:13:27;;;;;;;7.15;4.68;;;;;;;;;;5105454;28;20119;-62
2023/06/05 03:15:56;;;;;;;8.15;4.57;;;;;;;;;;5099422;28;20156;-63
2023/06/05 03:18:22;;;;;;;7.68;5.00;;;;;;;;;;5107031;28;20080;-62
2023/06/05 03:20:50;;;;;;;7.40;4.13;;;;;;;;;;5100208;28;20424;-62
2023/06/05 03:23:15;;;;;;;6.65;4.43;;;;;;;;;;5108443;28;20077;-62
2023/06/05 03:25:40;;;;;;;15.07;5.20;;;;;;;;;;5105406;28;20382;-62
2023/06/05 03:28:05;;;;;;;10.35;5.05;;;;;;;;;;5105816;28;20027;-62
2023/06/05 03:30:31;;;;;;;7.43;4.97;;;;;;;;;;5092581;28;20153;-63
2023/06/05 03:32:56;;;;;;;16.93;5.10;;;;;;;;;;5093165;28;20024;-62
2023/06/05 03:35:21;;;;;;;7.87;5.00;;;;;;;;;;5093395;28;20270;-63
2023/06/05 03:37:46;;;;;;;9.95;4.85;;;;;;;;;;5094128;28;20274;-62
2023/06/05 03:40:12;;;;;;;7.28;5.10;;;;;;;;;;5093390;28;20042;-63
2023/06/05 03:42:37;;;;;;;11.45;5.13;;;;;;;;;;5111660;28;20028;-62
2023/06/05 03:45:03;;;;;;;11.47;5.53;;;;;;;;;;5113210;28;20065;-63
2023/06/05 03:47:28;;;;;;;10.45;5.38;;;;;;;;;;5112512;28;20273;-62
2023/06/05 03:49:55;;;;;;;7.10;4.90;;;;;;;;;;5112051;28;20107;-62
2023/06/05 03:52:24;;;;;;;6.72;4.80;;;;;;;;;;5099005;28;20037;-62
2023/06/05 03:54:55;;;;;;;10.07;5.68;;;;;;;;;;5112910;28;20374;-62
2023/06/05 03:57:21;;;;;;;7.93;5.22;;;;;;;;;;5099781;28;20028;-64
2023/06/05 03:59:49;;;;;;;9.13;5.20;;;;;;;;;;5098573;28;20042;-63
2023/06/05 04:02:14;;;;;;;6.40;4.90;;;;;;;;;;5098574;28;20019;-63
2023/06/05 04:04:39;;;;;;;6.53;5.20;;;;;;;;;;5111091;28;20019;-62
2023/06/05 04:07:05;;;;;;;7.10;5.53;;;;;;;;;;5098740;28;20019;-63
2023/06/05 04:09:31;;;;;;;7.93;5.85;;;;;;;;;;5099079;28;20031;-63
2023/06/05 04:11:56;;;;;;;7.70;5.22;;;;;;;;;;5094533;28;20180;-63
2023/06/05 04:14:21;;;;;;;9.27;5.80;;;;;;;;;;5093454;28;20028;-62
2023/06/05 04:16:47;;;;;;;7.03;5.37;;;;;;;;;;5094304;28;20069;-62
2023/06/05 04:19:12;;;;;;;10.43;5.32;;;;;;;;;;5092863;28;20360;-62
2023/06/05 04:21:37;;;;;;;13.40;6.53;;;;;;;;;;5093544;28;20031;-63
2023/06/05 04:24:06;;;;;;;7.80;5.45;;;;;;;;;;5104185;28;20424;-63
2023/06/05 04:26:32;;;;;;;8.63;5.35;;;;;;;;;;5111291;28;20470;-62
2023/06/05 04:28:58;;;;;;;8.80;5.22;;;;;;;;;;5094834;28;20023;-62
2023/06/05 04:31:25;;;;;;;8.00;5.35;;;;;;;;;;5105911;28;20032;-63
2023/06/05 04:33:50;;;;;;;9.30;6.25;;;;;;;;;;5100695;28;20019;-62
2023/06/05 04:36:17;;;;;;;13.35;5.53;;;;;;;;;;5098771;28;20489;-63
2023/06/05 04:38:43;;;;;;;8.23;5.40;;;;;;;;;;5103854;28;20032;-63
2023/06/05 04:41:09;;;;;;;12.48;6.07;;;;;;;;;;5111778;28;20493;-63
2023/06/05 04:43:34;;;;;;;8.32;5.05;;;;;;;;;;5111347;28;20382;-63
2023/06/05 04:46:00;;;;;;;7.55;5.22;;;;;;;;;;5111671;28;20024;-62
2023/06/05 04:48:25;;;;;;;7.20;5.32;;;;;;;;;;5109461;28;20027;-62
2023/06/05 04:50:53;;;;;;;8.38;5.55;;;;;;;;;;5108613;28;20050;-63
2023/06/05 04:53:18;;;;;;;8.13;5.25;;;;;;;;;;5108394;28;20031;-63
2023/06/05 04:55:45;;;;;;;11.02;5.85;;;;;;;;;;5107213;28;20024;-62
2023/06/05 04:58:11;;;;;;;7.05;5.45;;;;;;;;;;5107420;28;20027;-62
2023/06/05 05:00:36;;;;;;;9.68;5.18;;;;;;;;;;5106543;28;20032;-63
2023/06/05 05:03:02;;;;;;;11.32;5.50;;;;;;;;;;5109636;28;20027;-62
2023/06/05 05:05:27;;;;;;;11.15;6.22;;;;;;;;;;5103111;28;20094;-63
2023/06/05 05:07:53;;;;;;;7.28;5.35;;;;;;;;;;5105578;28;20128;-62
2023/06/05 05:10:18;;;;;;;11.38;5.47;;;;;;;;;;5107860;28;20038;-62
2023/06/05 05:12:43;;;;;;;7.35;5.75;;;;;;;;;;5109244;28;20057;-62
2023/06/05 05:15:09;;;;;;;10.05;5.90;;;;;;;;;;5109141;28;20464;-62
2023/06/05 05:17:34;;;;;;;8.73;5.95;;;;;;;;;;5110613;28;20034;-62
2023/06/05 05:19:59;;;;;;;10.90;6.20;;;;;;;;;;5103198;28;20099;-62
2023/06/05 05:22:26;;;;;;;9.25;5.90;;;;;;;;;;5092084;28;20074;-63
2023/06/05 05:24:51;;;;;;;8.93;6.70;;;;;;;;;;5105526;28;20127;-62
2023/06/05 05:27:16;;;;;;;11.55;5.65;;;;;;;;;;5091708;28;20032;-62
2023/06/05 05:29:41;;;;;;;10.65;5.95;;;;;;;;;;5066710;28;20023;-62
2023/06/05 05:32:07;;;;;;;9.00;6.07;;;;;;;;;;5067195;28;20046;-63
2023/06/05 05:34:33;;;;;;;14.05;6.22;;;;;;;;;;5065596;28;20359;-62
2023/06/05 05:36:59;;;;;;;10.32;6.03;;;;;;;;;;5065908;28;20467;-62
2023/06/05 05:39:24;;;;;;;9.32;6.10;;;;;;;;;;5080814;28;20023;-62
2023/06/05 05:41:49;;;;;;;9.55;6.30;;;;;;;;;;5110494;28;20023;-62
2023/06/05 05:44:15;;;;;;;10.35;6.43;;;;;;;;;;5103675;28;20106;-61
2023/06/05 05:46:40;;;;;;;10.95;6.25;;;;;;;;;;5097823;28;20020;-62
2023/06/05 05:49:05;;;;;;;10.70;6.53;;;;;;;;;;5100641;28;20419;-62
2023/06/05 05:51:31;;;;;;;8.70;5.93;;;;;;;;;;5097323;28;20028;-62
2023/06/05 05:53:56;;;;;;;13.35;7.32;;;;;;;;;;5100908;28;20023;-62
2023/06/05 05:56:21;;;;;;;7.82;5.55;;;;;;;;;;5099537;28;20534;-62
2023/06/05 05:58:47;;;;;;;10.65;6.90;;;;;;;;;;5098667;28;20085;-62
2023/06/05 06:01:13;;;;;;;13.18;7.70;;;;;;;;;;5097116;28;20028;-62
2023/06/05 06:03:40;;;;;;;10.93;7.30;;;;;;;;;;5111714;28;20378;-62
2023/06/05 06:06:07;;;;;;;10.85;6.60;;;;;;;;;;5106332;28;20050;-62
2023/06/05 06:08:33;;;;;;;12.25;6.80;;;;;;;;;;5106400;28;20103;-62
2023/06/05 06:10:59;;;;;;;9.43;6.60;;;;;;;;;;5103368;28;20035;-62
2023/06/05 06:13:24;;;;;;;12.75;6.97;;;;;;;;;;5111279;28;20019;-62
2023/06/05 06:15:50;;;;;;;11.43;7.10;;;;;;;;;;5104782;28;20048;-62
2023/06/05 06:18:15;;;;;;;9.60;6.50;;;;;;;;;;5110530;28;20059;-62
2023/06/05 06:20:43;;;;;;;11.32;6.38;;;;;;;;;;5109918;28;20035;-62
2023/06/05 06:23:09;;;;;;;9.77;6.30;;;;;;;;;;5100528;28;20708;-62
2023/06/05 06:25:34;;;;;;;10.93;6.68;;;;;;;;;;5111723;28;20055;-62
2023/06/05 06:27:59;;;;;;;11.40;7.40;;;;;;;;;;5098973;28;20058;-62
2023/06/05 06:30:25;;;;;;;7.10;5.18;;;;;;;;;;5104478;28;20042;-62
2023/06/05 06:32:51;;;;;;;10.02;6.45;;;;;;;;;;5105552;28;20374;-62
2023/06/05 06:35:16;;;;;;;8.07;6.03;;;;;;;;;;5102809;28;20094;-62
2023/06/05 06:37:42;;;;;;;10.82;6.43;;;;;;;;;;5097798;28;20112;-62
2023/06/05 06:40:10;;;;;;;10.77;6.70;;;;;;;;;;5108789;28;20054;-62
2023/06/05 06:42:36;;;;;;;18.88;7.35;;;;;;;;;;5094797;28;20035;-62
2023/06/05 06:45:01;;;;;;;9.32;6.40;;;;;;;;;;5094231;28;20099;-62
2023/06/05 06:47:27;;;;;;;11.60;5.45;;;;;;;;;;5096644;28;20470;-62
2023/06/05 06:49:53;;;;;;;12.25;7.40;;;;;;;;;;5101779;28;20428;-60
2023/06/05 06:52:19;;;;;;;14.15;6.50;;;;;;;;;;5097229;28;20364;-62
2023/06/05 06:54:45;;;;;;;15.48;7.50;;;;;;;;;;5094809;28;20024;-62
2023/06/05 06:57:10;;;;;;;11.38;6.80;;;;;;;;;;5095937;28;20073;-61
2023/06/05 06:59:35;;;;;;;14.07;7.63;;;;;;;;;;5105568;28;20120;-62
2023/06/05 07:02:13;;;;;;;15.57;7.13;;;;;;;;;;5100440;28;20270;-62
2023/06/05 07:04:40;;;;;;;9.70;6.63;;;;;;;;;;5100907;28;20024;-62
2023/06/05 07:07:07;;;;;;;14.25;7.43;;;;;;;;;;5106190;28;20020;-61
2023/06/05 07:09:32;;;;;;;10.00;6.47;;;;;;;;;;5094815;28;20020;-62
2023/06/05 07:11:58;;;;;;;14.43;6.78;;;;;;;;;;5094396;28;20410;-62
2023/06/05 07:14:23;;;;;;;9.95;6.70;;;;;;;;;;5091856;28;20467;-62
2023/06/05 07:16:51;;;;;;;8.45;5.78;;;;;;;;;;5093416;28;20440;-63
2023/06/05 07:19:16;;;;;;;10.63;6.72;;;;;;;;;;5093683;28;20119;-62
2023/06/05 07:21:42;;;;;;;15.18;6.55;;;;;;;;;;5093555;28;20128;-62
2023/06/05 07:24:07;;;;;;;7.97;6.17;;;;;;;;;;5097027;28;20036;-62
2023/06/05 07:26:33;;;;;;;9.02;6.32;;;;;;;;;;5099284;28;20285;-62
2023/06/05 07:28:58;;;;;;;14.93;6.60;;;;;;;;;;5100650;28;20027;-62
2023/06/05 07:31:23;;;;;;;12.47;6.50;;;;;;;;;;5100980;28;20036;-62
2023/06/05 07:33:49;;;;;;;12.10;6.43;;;;;;;;;;5105349;28;20671;-62
2023/06/05 07:36:14;;;;;;;7.85;6.13;;;;;;;;;;5105768;28;20278;-62
2023/06/05 07:38:40;;;;;;;15.18;6.60;;;;;;;;;;5107790;28;20524;-62
2023/06/05 07:41:06;;;;;;;5.85;4.65;;;;;;;;;;5091258;28;20088;-62
2023/06/05 07:43:31;;;;;;;10.63;6.65;;;;;;;;;;5110920;28;20023;-62
2023/06/05 07:45:57;;;;;;;10.93;6.10;;;;;;;;;;5099991;28;20019;-63
2023/06/05 07:48:22;;;;;;;13.40;6.57;;;;;;;;;;5096784;28;20282;-62
2023/06/05 07:50:47;;;;;;;9.20;6.93;;;;;;;;;;5100414;28;20063;-62
2023/06/05 07:53:12;;;;;;;11.47;6.47;;;;;;;;;;5104094;28;20441;-62
2023/06/05 07:55:37;;;;;;;10.50;6.80;;;;;;;;;;5111843;28;20269;-62
2023/06/05 07:58:03;;;;;;;10.13;6.60;;;;;;;;;;5105170;28;20360;-62
2023/06/05 08:00:28;;;;;;;13.30;6.07;;;;;;;;;;5098538;28;20272;-61
2023/06/05 08:02:53;;;;;;;10.75;6.60;;;;;;;;;;5105445;28;20063;-62
2023/06/05 08:05:19;;;;;;;12.20;6.97;;;;;;;;;;5107016;28;20020;-62
2023/06/05 08:07:45;;;;;;;9.35;6.63;;;;;;;;;;5109052;28;20016;-62
2023/06/05 08:10:11;;;;;;;12.15;6.28;;;;;;;;;;5105902;28;20458;-62
2023/06/05 08:12:36;;;;;;;13.73;7.35;;;;;;;;;;5100913;28;20031;-62
2023/06/05 08:15:01;;;;;;;10.13;6.60;;;;;;;;;;5109943;28;20145;-63
2023/06/05 08:17:27;;;;;;;10.27;7.10;;;;;;;;;;5106677;28;20032;-65
2023/06/05 08:19:53;;;;;;;10.95;6.10;;;;;;;;;;5109185;28;20024;-62
2023/06/05 08:22:18;;;;;;;12.80;6.22;;;;;;;;;;5106293;28;20027;-61
2023/06/05 08:24:43;;;;;;;8.70;5.27;;;;;;;;;;5109648;28;20110;-62
2023/06/05 08:27:08;;;;;;;8.37;6.10;;;;;;;;;;5110828;28;20291;-61
2023/06/05 08:29:37;;;;;;;11.63;6.57;;;;;;;;;;5099799;28;20274;-62
2023/06/05 08:32:05;;;;;;;10.45;6.72;;;;;;;;;;5097341;28;20293;-61
2023/06/05 08:34:31;;;;;;;10.60;6.65;;;;;;;;;;5100639;28;20479;-61
2023/06/05 08:36:58;;;;;;;7.68;5.85;;;;;;;;;;5099212;28;20034;-62
2023/06/05 08:39:26;;;;;;;9.93;6.35;;;;;;;;;;5101785;28;20047;-62
2023/06/05 08:41:52;;;;;;;8.43;6.63;;;;;;;;;;5108971;28;20015;-62
2023/06/05 08:44:17;;;;;;;13.48;6.07;;;;;;;;;;5107357;28;20643;-62
2023/06/05 08:46:43;;;;;;;8.05;6.15;;;;;;;;;;5107316;28;20052;-62
2023/06/05 08:49:10;;;;;;;9.98;5.78;;;;;;;;;;5110605;28;20027;-62
2023/06/05 08:51:37;;;;;;;20.13;6.80;;;;;;;;;;5108868;28;20023;-62
2023/06/05 08:54:12;;;;;;;10.98;7.10;;;;;;;;;;5108785;28;20028;-62
2023/06/05 08:56:37;;;;;;;9.95;5.95;;;;;;;;;;5108677;28;20039;-61
2023/06/05 08:59:04;;;;;;;11.35;6.78;;;;;;;;;;5104751;28;20055;-62
2023/06/05 09:01:32;;;;;;;7.75;6.05;;;;;;;;;;5105621;28;20427;-62
2023/06/05 09:03:57;;;;;;;18.30;6.30;;;;;;;;;;5099196;28;20142;-62
2023/06/05 09:06:22;;;;;;;7.80;6.13;;;;;;;;;;5102057;28;20102;-61
2023/06/05 09:08:47;;;;;;;13.38;7.32;;;;;;;;;;5095362;28;20277;-62
2023/06/05 09:11:20;;;;;;;10.93;5.90;;;;;;;;;;5099913;28;20060;-61
2023/06/05 09:13:46;;;;;;;10.07;6.50;;;;;;;;;;5096346;28;20290;-62
2023/06/05 09:16:11;;;;;;;8.00;5.72;;;;;;;;;;5096700;28;20398;-62
2023/06/05 09:18:38;;;;;;;8.13;6.23;;;;;;;;;;5093673;28;20024;-62
2023/06/05 09:21:11;;;;;;;9.00;6.65;;;;;;;;;;5094466;28;20306;-62
2023/06/05 09:23:36;;;;;;;11.73;6.38;;;;;;;;;;5099034;28;20052;-61
2023/06/05 09:26:03;;;;;;;9.40;5.82;;;;;;;;;;5109452;28;20107;-63
2023/06/05 09:28:28;;;;;;;8.48;6.32;;;;;;;;;;5100204;28;20032;-62
2023/06/05 09:30:57;;;;;;;9.95;6.85;;;;;;;;;;5102498;28;20367;-62
2023/06/05 09:33:24;;;;;;;12.80;6.80;;;;;;;;;;5107204;28;20020;-62
2023/06/05 09:36:02;;;;;;;9.85;6.20;;;;;;;;;;5101491;28;20018;-61
2023/06/05 09:38:27;;;;;;;10.45;5.93;;;;;;;;;;5100817;28;20546;-61
2023/06/05 09:41:00;;;;;;;14.93;7.55;;;;;;;;;;5113919;28;20099;-62
2023/06/05 09:43:25;;;;;;;10.57;6.85;;;;;;;;;;5103820;28;20046;-61
2023/06/05 09:45:51;;;;;;;9.80;6.00;;;;;;;;;;5107565;28;20016;-61
2023/06/05 09:48:16;;;;;;;9.55;6.68;;;;;;;;;;5085723;28;20289;-62
2023/06/05 09:50:42;;;;;;;10.27;6.40;;;;;;;;;;5110364;28;20073;-62
2023/06/05 09:53:12;;;;;;;11.27;6.45;;;;;;;;;;5109619;28;20676;-66
2023/06/05 09:55:37;;;;;;;10.43;5.72;;;;;;;;;;5106836;28;20028;-61
2023/06/05 09:58:10;;;;;;;7.90;6.40;;;;;;;;;;5108432;28;20462;-62
2023/06/05 10:00:36;;;;;;;7.20;5.35;;;;;;;;;;5097594;28;20059;-61
2023/06/05 10:03:04;;;;;;;11.65;6.65;;;;;;;;;;5101932;28;20059;-62
2023/06/05 10:05:30;;;;;;;14.70;6.70;;;;;;;;;;5108472;28;20027;-61
2023/06/05 10:07:56;;;;;;;10.35;6.60;;;;;;;;;;5097560;28;20102;-61
2023/06/05 10:10:21;;;;;;;10.35;7.05;;;;;;;;;;5099025;28;20028;-62
2023/06/05 10:12:47;;;;;;;8.63;6.47;;;;;;;;;;5099099;28;20028;-63
2023/06/05 10:15:12;;;;;;;11.95;7.88;;;;;;;;;;5098133;28;20115;-63
2023/06/05 10:17:41;;;;;;;10.60;6.57;;;;;;;;;;5098492;28;20048;-61
2023/06/05 10:20:07;;;;;;;12.38;6.88;;;;;;;;;;5098176;28;20020;-62
2023/06/05 10:22:33;;;;;;;12.88;6.93;;;;;;;;;;5093668;28;20099;-62
2023/06/05 10:25:00;;;;;;;9.98;5.57;;;;;;;;;;5107923;28;20127;-61
2023/06/05 10:27:32;;;;;;;8.57;5.53;;;;;;;;;;5096689;28;20076;-61
2023/06/05 10:30:13;;;;;;;8.07;6.18;;;;;;;;;;5093637;28;20039;-62
2023/06/05 10:32:39;;;;;;;7.88;5.57;;;;;;;;;;5094557;28;20478;-62
2023/06/05 10:35:30;;;;;;;10.48;6.65;;;;;;;;;;5094839;28;20024;-62
2023/06/05 10:38:04;;;;;;;14.32;5.78;;;;;;;;;;5093117;28;20024;-62
2023/06/05 10:40:29;;;;;;;;;;;;;;;;;;5109146;28;20473;-62
2023/06/05 10:43:16;;;;;;;17.58;7.30;;;;;;;;;;5105170;28;20003;-62
2023/06/05 10:45:41;;;;;;;7.28;5.75;;;;;;;;;;5093290;28;20023;-62
2023/06/05 10:48:06;;;;;;;15.23;4.97;;;;;;;;;;5093112;28;20032;-62
2023/06/05 10:50:32;;;;;;;5.50;4.07;;;;;;;;;;5104191;28;20031;-61
2023/06/05 10:52:57;;;;;;;8.80;4.80;;;;;;;;;;5101663;28;20355;-62
2023/06/05 10:55:23;;;;;;;7.75;5.32;;;;;;;;;;5106408;28;20304;-62
2023/06/05 10:58:04;;;;;;;12.38;5.85;;;;;;;;;;5100867;28;20483;-62
2023/06/05 11:00:29;;;;;;;7.20;4.55;;;;;;;;;;5105042;28;20069;-61
2023/06/05 11:02:55;;;;;;;10.27;4.38;;;;;;;;;;5106436;28;20391;-62
2023/06/05 11:05:23;;;;;;;13.07;5.60;;;;;;;;;;5105148;28;20482;-62
2023/06/05 11:08:09;;;;;;;7.78;5.25;;;;;;;;;;5099761;28;20024;-62
2023/06/05 11:10:35;;;;;;;9.43;4.38;;;;;;;;;;5113270;28;20041;-63
2023/06/05 11:13:00;;;;;;;8.32;5.53;;;;;;;;;;5106432;28;21081;-63
2023/06/05 11:15:39;;;;;;;8.50;4.97;;;;;;;;;;5102850;28;20024;-61
2023/06/05 11:18:22;;;;;;;12.48;5.40;;;;;;;;;;5104497;28;20035;-62
2023/06/05 11:20:48;;;;;;;6.50;3.60;;;;;;;;;;5098158;28;20024;-62
2023/06/05 11:23:13;;;;;;;11.67;5.07;;;;;;;;;;5088164;28;20481;-62
2023/06/05 11:25:38;;;;;;;7.28;4.90;;;;;;;;;;5113393;28;20046;-63
2023/06/05 11:28:09;;;;;;;9.20;5.00;;;;;;;;;;5113478;28;20027;-63
2023/06/05 11:30:43;;;;;;;7.53;4.93;;;;;;;;;;5083202;28;20031;-62
2023/06/05 11:33:08;;;;;;;7.70;4.68;;;;;;;;;;5112075;28;20470;-62
2023/06/05 11:35:34;;;;;;;8.45;3.88;;;;;;;;;;5113432;28;20027;-61
2023/06/05 11:38:09;;;;;;;6.03;3.35;;;;;;;;;;5112780;28;20033;-62
2023/06/05 11:40:34;;;;;;;10.20;3.67;;;;;;;;;;5111121;28;20024;-62
2023/06/05 11:43:09;;;;;;;8.75;3.42;;;;;;;;;;5093164;28;20085;-62
2023/06/05 11:45:38;;;;;;;9.52;3.38;;;;;;;;;;5096942;28;20023;-63
2023/06/05 11:48:07;;;;;;;6.43;3.67;;;;;;;;;;5113233;28;20400;-63
2023/06/05 11:50:32;;;;;;;8.13;3.88;;;;;;;;;;5112520;28;20046;-63
2023/06/05 11:53:04;;;;;;;10.10;4.90;;;;;;;;;;5113407;28;20024;-63
2023/06/05 11:55:42;;;;;;;6.53;4.05;;;;;;;;;;5112874;28;20295;-62
2023/06/05 11:58:08;;;;;;;8.82;2.70;;;;;;;;;;5113156;28;20031;-63
2023/06/05 12:00:34;;;;;;;7.32;3.35;;;;;;;;;;5113300;28;20023;-63
2023/06/05 12:02:59;;;;;;;8.00;3.65;;;;;;;;;;5112404;28;20059;-62
2023/06/05 12:05:24;;;;;;;14.80;3.40;;;;;;;;;;5092450;28;20055;-63
2023/06/05 12:07:50;;;;;;;5.73;2.70;;;;;;;;;;5106796;28;20405;-63
2023/06/05 12:10:16;;;;;;;5.07;3.00;;;;;;;;;;5092740;28;20278;-63
2023/06/05 12:12:51;;;;;;;5.22;2.38;;;;;;;;;;5093897;28;20111;-63
2023/06/05 12:15:17;;;;;;;7.95;2.92;;;;;;;;;;5113029;28;20044;-63
2023/06/05 12:17:50;;;;;;;3.67;2.35;;;;;;;;;;5112764;28;20107;-63
2023/06/05 12:20:16;;;;;;;6.67;2.97;;;;;;;;;;5112345;28;20433;-62
2023/06/05 12:22:41;;;;;;;6.25;3.38;;;;;;;;;;5112461;28;20047;-63
2023/06/05 12:25:24;;;;;;;5.07;2.93;;;;;;;;;;5112902;28;20450;-62
2023/06/05 12:27:49;;;;;;;5.97;3.47;;;;;;;;;;5112640;28;20032;-63
2023/06/05 12:30:16;;;;;;;6.40;2.90;;;;;;;;;;5108012;28;20028;-63
2023/06/05 12:32:43;;;;;;;5.32;2.75;;;;;;;;;;5092721;28;20703;-63
2023/06/05 12:35:21;;;;;;;3.25;1.80;;;;;;;;;;5092428;28;20063;-63
2023/06/05 12:37:47;;;;;;;10.88;3.05;;;;;;;;;;5105999;28;20031;-63
2023/06/05 12:40:13;;;;;;;8.05;2.97;;;;;;;;;;5105118;28;20036;-63
2023/06/05 12:42:40;;;;;;;8.77;2.42;;;;;;;;;;5111829;28;20038;-63
2023/06/05 12:45:06;;;;;;;6.78;3.05;;;;;;;;;;5112209;28;20047;-62
2023/06/05 12:47:31;;;;;;;5.70;2.95;;;;;;;;;;5112214;28;20067;-63
2023/06/05 12:49:57;;;;;;;6.10;2.73;;;;;;;;;;5112207;28;20065;-63
2023/06/05 12:52:25;;;;;;;4.03;2.72;;;;;;;;;;5111548;28;20719;-64
2023/06/05 12:54:50;;;;;;;6.53;2.85;;;;;;;;;;5112664;28;20028;-63
2023/06/05 12:57:16;;;;;;;6.00;2.63;;;;;;;;;;5111921;28;20543;-64
2023/06/05 12:59:41;;;;;;;4.85;2.83;;;;;;;;;;5112174;28;20269;-63
2023/06/05 13:02:07;;;;;;;5.85;2.72;;;;;;;;;;5112075;28;20027;-64
2023/06/05 13:04:32;;;;;;;5.22;2.42;;;;;;;;;;5111669;28;20382;-63
2023/06/05 13:06:59;;;;;;;5.63;2.80;;;;;;;;;;5111713;28;20100;-64
2023/06/05 13:09:24;;;;;;;5.00;2.30;;;;;;;;;;5111088;28;20104;-63
2023/06/05 13:11:49;;;;;;;7.43;2.42;;;;;;;;;;5098447;28;20458;-63
2023/06/05 13:14:15;;;;;;;9.43;2.43;;;;;;;;;;5111257;28;20030;-63
2023/06/05 13:16:41;;;;;;;11.90;3.25;;;;;;;;;;5111343;28;20057;-64
2023/06/05 13:19:06;;;;;;;3.47;2.00;;;;;;;;;;5110218;28;20024;-63
2023/06/05 13:21:32;;;;;;;3.33;1.90;;;;;;;;;;5110924;28;20454;-61
2023/06/05 13:23:57;;;;;;;4.05;2.22;;;;;;;;;;5111368;28;20031;-62
2023/06/05 13:26:23;;;;;;;4.77;2.30;;;;;;;;;;5111876;28;20046;-63
2023/06/05 13:28:51;;;;;;;5.80;2.28;;;;;;;;;;5111700;28;20273;-63
2023/06/05 13:31:17;;;;;;;3.90;2.33;;;;;;;;;;5111411;28;20042;-62
2023/06/05 13:33:42;;;;;;;6.50;2.45;;;;;;;;;;5111345;28;20036;-62
2023/06/05 13:36:08;;;;;;;6.43;3.00;;;;;;;;;;5110991;28;20378;-62
2023/06/05 13:38:33;;;;;;;4.88;2.58;;;;;;;;;;5104564;28;20640;-62
2023/06/05 13:40:59;;;;;;;7.20;2.60;;;;;;;;;;5112138;28;20012;-62
2023/06/05 13:43:24;;;;;;;4.35;2.13;;;;;;;;;;5111666;28;20019;-62
2023/06/05 13:45:50;;;;;;;5.10;2.27;;;;;;;;;;5111750;28;20405;-61
2023/06/05 13:48:18;;;;;;;8.38;2.40;;;;;;;;;;5107047;28;20277;-62
2023/06/05 13:50:46;;;;;;;9.65;2.85;;;;;;;;;;5100302;28;20476;-63
2023/06/05 13:53:11;;;;;;;4.18;2.13;;;;;;;;;;5111062;28;20030;-62
2023/06/05 13:55:36;;;;;;;4.37;2.33;;;;;;;;;;5081884;28;20048;-63
2023/06/05 13:58:02;;;;;;;6.63;2.57;;;;;;;;;;5104845;28;20270;-62
2023/06/05 14:00:31;;;;;;;6.75;2.47;;;;;;;;;;5111253;28;20334;-62
2023/06/05 14:02:56;;;;;;;8.85;2.65;;;;;;;;;;5111451;28;20212;-63
2023/06/05 14:05:22;;;;;;;6.32;2.50;;;;;;;;;;5096986;28;20027;-63
2023/06/05 14:07:49;;;;;;;6.15;2.38;;;;;;;;;;5091944;28;20055;-61
2023/06/05 14:10:14;;;;;;;3.88;2.33;;;;;;;;;;5100920;28;20023;-63
2023/06/05 14:12:39;;;;;;;5.45;2.53;;;;;;;;;;5090206;28;20036;-62
2023/06/05 14:15:05;;;;;;;7.80;2.37;;;;;;;;;;5097047;28;20020;-63
2023/06/05 14:17:30;;;;;;;6.22;2.72;;;;;;;;;;5091022;28;20327;-64
2023/06/05 14:19:56;;;;;;;4.20;2.33;;;;;;;;;;5094209;28;20039;-63
2023/06/05 14:22:21;;;;;;;8.20;3.25;;;;;;;;;;5094675;28;20069;-63
2023/06/05 14:24:46;;;;;;;4.18;2.40;;;;;;;;;;5096422;28;20116;-63
2023/06/05 14:27:13;;;;;;;7.87;3.20;;;;;;;;;;5107756;28;20102;-63
2023/06/05 14:29:38;;;;;;;12.25;2.65;;;;;;;;;;5104641;28;20277;-63
2023/06/05 14:32:04;;;;;;;5.75;2.80;;;;;;;;;;5102725;28;20032;-62
2023/06/05 14:34:30;;;;;;;3.40;2.30;;;;;;;;;;5104213;28;20039;-64